createdAt,value
2017-07-10T00:01:07.000Z,14.30
2017-07-10T00:03:35.157Z,14.20
2017-07-10T00:06:03.272Z,14.20
2017-07-10T00:08:31.420Z,14.20
2017-07-10T00:10:59.564Z,14.20
2017-07-10T00:13:28.462Z,14.10
2017-07-10T00:15:56.652Z,14.10
2017-07-10T00:18:24.787Z,14.10
2017-07-10T00:20:53.040Z,14.20
2017-07-10T00:23:21.171Z,14.20
2017-07-10T00:25:49.308Z,14.20
2017-07-10T00:28:17.469Z,14.20
2017-07-10T00:30:45.587Z,14.30
2017-07-10T00:33:13.743Z,14.30
2017-07-10T00:35:41.933Z,14.20
2017-07-10T00:38:10.093Z,14.10
2017-07-10T00:40:39.009Z,14.10
2017-07-10T00:43:07.137Z,14.10
2017-07-10T00:45:35.300Z,14.10
2017-07-10T00:48:03.433Z,14.10
2017-07-10T00:50:31.607Z,14.10
2017-07-10T00:52:59.748Z,14.10
2017-07-10T00:55:27.929Z,14.10
2017-07-10T00:57:56.085Z,14.10
2017-07-10T01:00:24.195Z,14.10
2017-07-10T01:02:52.367Z,14.10
2017-07-10T01:05:20.584Z,14.10
2017-07-10T01:07:48.752Z,14.10
2017-07-10T01:10:16.884Z,14.00
2017-07-10T01:12:45.013Z,14.00
2017-07-10T01:15:13.163Z,14.00
2017-07-10T01:17:41.289Z,13.90
2017-07-10T01:20:09.456Z,13.90
2017-07-10T01:22:37.593Z,13.90
2017-07-10T01:25:05.832Z,13.90
2017-07-10T01:27:33.949Z,13.90
2017-07-10T01:30:02.077Z,13.80
2017-07-10T01:32:30.208Z,13.80
2017-07-10T01:34:58.311Z,13.80
2017-07-10T01:37:26.463Z,13.80
2017-07-10T01:39:54.575Z,13.80
2017-07-10T01:42:22.757Z,13.80
2017-07-10T01:44:50.943Z,13.80
2017-07-10T01:47:19.059Z,13.80
2017-07-10T01:49:47.192Z,13.80
2017-07-10T01:52:15.323Z,13.70
2017-07-10T01:54:43.479Z,13.70
2017-07-10T01:57:11.591Z,13.70
2017-07-10T01:59:39.751Z,13.70
2017-07-10T02:02:07.889Z,13.70
2017-07-10T02:04:35.992Z,13.80
2017-07-10T02:07:04.135Z,13.70
2017-07-10T02:09:32.250Z,13.70
2017-07-10T02:12:00.397Z,13.70
2017-07-10T02:14:28.508Z,13.70
2017-07-10T02:16:56.660Z,13.70
2017-07-10T02:19:24.793Z,13.70
2017-07-10T02:21:52.910Z,13.70
2017-07-10T02:24:21.088Z,13.70
2017-07-10T02:26:49.217Z,13.70
2017-07-10T02:29:17.347Z,13.70
2017-07-10T02:31:46.256Z,13.70
2017-07-10T02:34:14.365Z,13.70
2017-07-10T02:36:42.505Z,13.70
2017-07-10T02:39:10.661Z,13.70
2017-07-10T02:41:38.784Z,13.70
2017-07-10T02:44:07.675Z,13.70
2017-07-10T02:46:36.698Z,13.70
2017-07-10T02:49:04.829Z,13.70
2017-07-10T02:51:33.062Z,13.70
2017-07-10T02:54:01.203Z,13.70
2017-07-10T02:56:29.325Z,13.70
2017-07-10T02:58:57.940Z,13.70
2017-07-10T03:01:26.235Z,13.70
2017-07-10T03:03:54.367Z,13.60
2017-07-10T03:06:22.507Z,13.70
2017-07-10T03:08:51.565Z,13.60
2017-07-10T03:11:19.696Z,13.50
2017-07-10T03:13:47.852Z,13.60
2017-07-10T03:16:15.999Z,13.70
2017-07-10T03:18:44.119Z,13.70
2017-07-10T03:21:12.261Z,13.60
2017-07-10T03:23:41.130Z,13.70
2017-07-10T03:26:09.248Z,13.70
2017-07-10T03:28:37.395Z,13.70
2017-07-10T03:31:05.511Z,13.70
2017-07-10T03:33:33.632Z,13.70
2017-07-10T03:36:01.790Z,13.70
2017-07-10T03:38:29.893Z,13.80
2017-07-10T03:40:58.009Z,13.80
2017-07-10T03:43:26.131Z,13.80
2017-07-10T03:45:54.254Z,13.90
2017-07-10T03:48:22.494Z,14.00
2017-07-10T03:50:50.655Z,14.10
2017-07-10T03:53:18.780Z,14.00
2017-07-10T03:55:46.922Z,14.00
2017-07-10T03:58:15.842Z,14.00
2017-07-10T04:00:44.842Z,13.90
2017-07-10T04:03:12.978Z,14.00
2017-07-10T04:05:41.078Z,14.10
2017-07-10T04:08:09.211Z,14.10
2017-07-10T04:10:37.342Z,14.10
2017-07-10T04:13:05.498Z,14.10
2017-07-10T04:15:33.632Z,14.10
2017-07-10T04:18:01.739Z,14.20
2017-07-10T04:20:29.870Z,14.20
2017-07-10T04:22:58.027Z,14.30
2017-07-10T04:25:26.911Z,14.30
2017-07-10T04:27:55.050Z,14.20
2017-07-10T04:30:23.203Z,14.30
2017-07-10T04:32:51.344Z,14.40
2017-07-10T04:35:19.448Z,14.40
2017-07-10T04:37:47.605Z,14.40
2017-07-10T04:40:16.493Z,14.50
2017-07-10T04:42:44.598Z,14.40
2017-07-10T04:45:12.742Z,14.40
2017-07-10T04:47:40.877Z,14.50
2017-07-10T04:50:08.998Z,14.60
2017-07-10T04:52:37.173Z,14.70
2017-07-10T04:55:05.288Z,14.80
2017-07-10T04:57:33.419Z,14.90
2017-07-10T05:00:01.596Z,14.90
2017-07-10T05:02:29.708Z,15.10
2017-07-10T05:04:57.816Z,15.20
2017-07-10T05:07:25.946Z,15.20
2017-07-10T05:09:54.078Z,15.30
2017-07-10T05:12:22.211Z,15.40
2017-07-10T05:14:50.358Z,15.50
2017-07-10T05:17:18.503Z,15.70
2017-07-10T05:19:47.396Z,15.90
2017-07-10T05:22:16.326Z,16.00
2017-07-10T05:24:44.467Z,16.00
2017-07-10T05:27:12.612Z,16.10
2017-07-10T05:29:40.757Z,16.20
2017-07-10T05:32:08.876Z,16.30
2017-07-10T05:34:37.001Z,16.40
2017-07-10T05:37:05.146Z,16.50
2017-07-10T05:39:33.283Z,16.50
2017-07-10T05:42:01.397Z,16.60
2017-07-10T05:44:29.624Z,16.60
2017-07-10T05:46:57.697Z,16.60
2017-07-10T05:49:25.820Z,16.60
2017-07-10T05:51:53.962Z,16.60
2017-07-10T05:54:22.107Z,16.70
2017-07-10T05:56:50.224Z,16.90
2017-07-10T05:59:18.377Z,17.00
2017-07-10T06:01:46.478Z,17.10
2017-07-10T06:04:14.637Z,17.20
2017-07-10T06:06:42.810Z,17.20
2017-07-10T06:09:10.976Z,17.30
2017-07-10T06:11:39.115Z,17.30
2017-07-10T06:14:07.260Z,17.40
2017-07-10T06:16:35.411Z,17.50
2017-07-10T06:19:04.348Z,17.70
2017-07-10T06:21:32.550Z,17.70
2017-07-10T06:24:01.458Z,17.80
2017-07-10T06:26:30.615Z,17.80
2017-07-10T06:28:58.819Z,17.90
2017-07-10T06:31:26.957Z,18.00
2017-07-10T06:33:55.078Z,18.00
2017-07-10T06:36:23.294Z,18.10
2017-07-10T06:38:51.432Z,18.20
2017-07-10T06:41:19.585Z,18.30
2017-07-10T06:43:47.790Z,18.30
2017-07-10T06:46:15.919Z,18.30
2017-07-10T06:48:44.041Z,18.40
2017-07-10T06:51:12.256Z,18.40
2017-07-10T06:53:40.368Z,18.50
2017-07-10T06:56:08.478Z,18.60
2017-07-10T06:58:36.619Z,18.60
2017-07-10T07:01:04.731Z,18.70
2017-07-10T07:03:32.931Z,18.70
2017-07-10T07:06:01.066Z,18.70
2017-07-10T07:08:29.209Z,18.70
2017-07-10T07:10:57.377Z,18.70
2017-07-10T07:13:25.547Z,18.70
2017-07-10T07:15:53.682Z,18.70
2017-07-10T07:18:21.938Z,18.80
2017-07-10T07:20:50.114Z,18.80
2017-07-10T07:23:18.246Z,18.90
2017-07-10T07:25:46.439Z,19.10
2017-07-10T07:28:14.574Z,19.20
2017-07-10T07:30:42.846Z,19.30
2017-07-10T07:33:11.049Z,19.40
2017-07-10T07:35:39.168Z,19.50
2017-07-10T07:38:07.288Z,19.60
2017-07-10T07:40:35.434Z,19.80
2017-07-10T07:43:04.338Z,19.90
2017-07-10T07:45:33.222Z,19.90
2017-07-10T07:48:02.136Z,19.80
2017-07-10T07:50:30.248Z,19.80
2017-07-10T07:52:58.403Z,19.90
2017-07-10T07:55:26.560Z,20.10
2017-07-10T07:57:54.718Z,20.10
2017-07-10T08:00:22.863Z,20.30
2017-07-10T08:02:51.022Z,20.30
2017-07-10T08:05:19.156Z,20.30
2017-07-10T08:07:48.068Z,20.50
2017-07-10T08:10:16.225Z,20.50
2017-07-10T08:12:44.419Z,20.60
2017-07-10T08:15:12.567Z,20.70
2017-07-10T08:17:40.709Z,20.70
2017-07-10T08:20:08.849Z,20.70
2017-07-10T08:22:36.966Z,20.80
2017-07-10T08:25:05.906Z,20.90
2017-07-10T08:27:34.839Z,21.00
2017-07-10T08:30:02.976Z,21.00
2017-07-10T08:32:31.135Z,21.20
2017-07-10T08:34:59.268Z,21.20
2017-07-10T08:37:27.472Z,21.20
2017-07-10T08:39:55.628Z,21.30
2017-07-10T08:42:24.538Z,21.40
2017-07-10T08:44:52.645Z,21.40
2017-07-10T08:47:20.799Z,21.50
2017-07-10T08:49:49.551Z,21.60
2017-07-10T08:52:17.659Z,21.70
2017-07-10T08:54:45.822Z,21.80
2017-07-10T08:57:14.003Z,21.80
2017-07-10T08:59:42.919Z,21.80
2017-07-10T09:02:11.192Z,21.80
2017-07-10T09:04:39.307Z,21.90
2017-07-10T09:07:07.451Z,21.90
2017-07-10T09:09:35.830Z,21.90
2017-07-10T09:12:03.963Z,21.80
2017-07-10T09:14:32.083Z,21.90
2017-07-10T09:17:00.246Z,22.00
2017-07-10T09:19:28.534Z,22.20
2017-07-10T09:21:56.775Z,22.20
2017-07-10T09:24:24.985Z,22.20
2017-07-10T09:26:53.223Z,22.40
2017-07-10T09:29:21.376Z,22.40
2017-07-10T09:31:49.503Z,22.20
2017-07-10T09:34:17.630Z,22.10
2017-07-10T09:36:45.764Z,22.10
2017-07-10T09:39:13.933Z,22.00
2017-07-10T09:41:42.062Z,22.00
2017-07-10T09:44:10.187Z,22.00
2017-07-10T09:46:39.234Z,21.90
2017-07-10T09:49:07.375Z,21.90
2017-07-10T09:51:35.505Z,21.60
2017-07-10T09:54:04.518Z,21.70
2017-07-10T09:56:32.642Z,21.60
2017-07-10T09:59:00.782Z,21.80
2017-07-10T10:01:28.919Z,21.80
2017-07-10T10:03:57.057Z,21.80
2017-07-10T10:06:25.223Z,21.80
2017-07-10T10:08:54.127Z,21.70
2017-07-10T10:11:22.264Z,21.70
2017-07-10T10:13:50.441Z,21.80
2017-07-10T10:16:18.561Z,21.70
2017-07-10T10:18:46.666Z,21.60
2017-07-10T10:21:14.821Z,21.60
2017-07-10T10:23:42.973Z,21.50
2017-07-10T10:26:11.154Z,21.60
2017-07-10T10:28:39.285Z,21.50
2017-07-10T10:31:07.782Z,21.50
2017-07-10T10:33:35.968Z,21.60
2017-07-10T10:36:04.106Z,21.60
2017-07-10T10:38:32.364Z,21.40
2017-07-10T10:41:00.504Z,21.40
2017-07-10T10:43:28.618Z,21.60
2017-07-10T10:45:56.759Z,21.70
2017-07-10T10:48:25.681Z,21.80
2017-07-10T10:50:53.792Z,21.80
2017-07-10T10:53:22.024Z,22.00
2017-07-10T10:55:50.186Z,22.10
2017-07-10T10:58:18.294Z,22.10
2017-07-10T11:00:46.406Z,22.00
2017-07-10T11:03:14.578Z,22.00
2017-07-10T11:05:42.692Z,22.10
2017-07-10T11:08:10.825Z,22.20
2017-07-10T11:10:39.839Z,21.90
2017-07-10T11:13:07.989Z,21.90
2017-07-10T11:15:36.958Z,21.80
2017-07-10T11:18:05.105Z,21.70
2017-07-10T11:20:33.228Z,21.70
2017-07-10T11:23:01.410Z,21.70
2017-07-10T11:25:29.687Z,21.70
2017-07-10T11:27:58.626Z,21.50
2017-07-10T11:30:26.803Z,21.50
2017-07-10T11:32:54.998Z,21.40
2017-07-10T11:35:23.161Z,21.30
2017-07-10T11:37:51.321Z,21.20
2017-07-10T11:40:19.477Z,21.20
2017-07-10T11:42:47.596Z,21.10
2017-07-10T11:45:16.012Z,21.10
2017-07-10T11:47:44.223Z,21.00
2017-07-10T11:50:12.447Z,21.00
2017-07-10T11:52:40.590Z,21.10
2017-07-10T11:55:08.725Z,21.00
2017-07-10T11:57:36.834Z,21.00
2017-07-10T12:00:04.997Z,20.90
2017-07-10T12:02:33.285Z,20.90
2017-07-10T12:05:01.393Z,20.90
2017-07-10T12:07:29.536Z,20.90
2017-07-10T12:09:57.688Z,20.80
2017-07-10T12:12:25.839Z,20.80
2017-07-10T12:14:53.975Z,20.80
2017-07-10T12:17:22.127Z,20.80
2017-07-10T12:19:50.381Z,20.70
2017-07-10T12:22:18.605Z,20.60
2017-07-10T12:24:47.101Z,20.60
2017-07-10T12:27:15.531Z,20.40
2017-07-10T12:29:43.690Z,20.40
2017-07-10T12:32:12.355Z,20.40
2017-07-10T12:34:40.474Z,20.30
2017-07-10T12:37:08.595Z,20.30
2017-07-10T12:39:37.361Z,20.20
2017-07-10T12:42:05.492Z,20.20
2017-07-10T12:44:33.665Z,20.20
2017-07-10T12:47:02.615Z,20.10
2017-07-10T12:49:32.270Z,20.00
2017-07-10T12:52:00.611Z,19.90
2017-07-10T12:54:28.829Z,20.00
2017-07-10T12:56:57.023Z,20.00
2017-07-10T12:59:25.186Z,20.00
2017-07-10T13:01:53.426Z,20.00
2017-07-10T13:04:21.576Z,20.00
2017-07-10T13:06:49.723Z,19.90
2017-07-10T13:09:17.924Z,20.00
2017-07-10T13:11:46.047Z,19.90
2017-07-10T13:14:14.193Z,19.80
2017-07-10T13:16:42.347Z,19.80
2017-07-10T13:19:10.468Z,19.80
2017-07-10T13:21:38.592Z,19.80
2017-07-10T13:24:06.767Z,19.70
2017-07-10T13:26:34.917Z,19.70
2017-07-10T13:29:03.064Z,19.70
2017-07-10T13:31:31.273Z,19.70
2017-07-10T13:33:59.431Z,19.60
2017-07-10T13:36:27.597Z,19.60
2017-07-10T13:38:56.531Z,19.60
2017-07-10T13:41:24.677Z,19.50
2017-07-10T13:43:53.647Z,19.50
2017-07-10T13:46:21.837Z,19.50
2017-07-10T13:48:50.019Z,19.60
2017-07-10T13:51:18.141Z,19.30
2017-07-10T13:53:46.273Z,19.50
2017-07-10T13:56:14.430Z,19.50
2017-07-10T13:58:43.388Z,19.50
2017-07-10T14:01:11.567Z,19.40
2017-07-10T14:03:39.704Z,19.30
2017-07-10T14:06:07.852Z,19.40
2017-07-10T14:08:36.022Z,19.40
2017-07-10T14:11:04.155Z,19.20
2017-07-10T14:13:32.365Z,19.10
2017-07-10T14:16:00.556Z,18.90
2017-07-10T14:18:28.728Z,18.90
2017-07-10T14:20:56.874Z,18.90
2017-07-10T14:23:25.015Z,18.80
2017-07-10T14:25:53.183Z,18.70
2017-07-10T14:28:21.314Z,18.70
2017-07-10T14:30:49.484Z,18.70
2017-07-10T14:33:17.615Z,18.50
2017-07-10T14:35:45.731Z,18.40
2017-07-10T14:38:14.253Z,18.30
2017-07-10T14:40:42.419Z,18.20
2017-07-10T14:43:10.544Z,18.20
2017-07-10T14:45:39.066Z,18.20
2017-07-10T14:48:07.211Z,18.10
2017-07-10T14:50:35.406Z,18.10
2017-07-10T14:53:03.607Z,18.20
2017-07-10T14:55:32.526Z,18.10
2017-07-10T14:58:00.670Z,18.00
2017-07-10T15:00:28.893Z,18.20
2017-07-10T15:02:57.040Z,18.10
2017-07-10T15:05:25.958Z,18.00
2017-07-10T15:07:54.105Z,17.90
2017-07-10T15:10:22.290Z,18.00
2017-07-10T15:12:50.422Z,17.80
2017-07-10T15:15:18.575Z,17.80
2017-07-10T15:17:46.781Z,17.90
2017-07-10T15:20:14.923Z,17.80
2017-07-10T15:22:43.147Z,17.90
2017-07-10T15:25:11.287Z,17.80
2017-07-10T15:27:39.464Z,17.70
2017-07-10T15:30:07.627Z,17.80
2017-07-10T15:32:35.777Z,17.70
2017-07-10T15:35:03.919Z,17.90
2017-07-10T15:37:32.048Z,17.80
2017-07-10T15:40:00.251Z,17.90
2017-07-10T15:42:29.147Z,17.70
2017-07-10T15:44:57.380Z,17.70
2017-07-10T15:47:25.546Z,17.70
2017-07-10T15:49:53.686Z,17.80
2017-07-10T15:52:21.856Z,17.60
2017-07-10T15:54:50.798Z,17.20
2017-07-10T15:57:20.011Z,17.30
2017-07-10T15:59:48.136Z,17.20
2017-07-10T16:02:16.339Z,17.10
2017-07-10T16:04:44.460Z,17.10
2017-07-10T16:07:12.575Z,17.10
2017-07-10T16:09:40.746Z,17.10
2017-07-10T16:12:08.889Z,17.10
2017-07-10T16:14:37.085Z,17.00
2017-07-10T16:17:05.293Z,16.90
2017-07-10T16:19:33.445Z,16.90
2017-07-10T16:22:01.591Z,16.90
2017-07-10T16:24:30.531Z,16.90
2017-07-10T16:26:58.667Z,17.00
2017-07-10T16:29:26.815Z,17.10
2017-07-10T16:31:55.057Z,17.20
2017-07-10T16:34:23.185Z,17.30
2017-07-10T16:36:51.345Z,17.40
2017-07-10T16:39:20.493Z,17.20
2017-07-10T16:41:48.639Z,17.10
2017-07-10T16:44:16.782Z,17.10
2017-07-10T16:46:44.964Z,16.90
2017-07-10T16:49:13.545Z,16.70
2017-07-10T16:51:41.718Z,16.70
2017-07-10T16:54:10.017Z,16.70
2017-07-10T16:56:38.158Z,16.50
2017-07-10T16:59:06.276Z,16.50
2017-07-10T17:01:34.476Z,16.50
2017-07-10T17:04:02.620Z,16.50
2017-07-10T17:06:30.736Z,16.50
2017-07-10T17:08:58.909Z,16.40
2017-07-10T17:11:27.018Z,16.30
2017-07-10T17:13:55.152Z,16.30
2017-07-10T17:16:23.321Z,16.30
2017-07-10T17:18:51.437Z,16.20
2017-07-10T17:21:19.564Z,16.10
2017-07-10T17:23:47.730Z,16.20
2017-07-10T17:26:15.859Z,16.10
2017-07-10T17:28:44.011Z,16.10
2017-07-10T17:31:12.944Z,16.00
2017-07-10T17:33:41.077Z,16.00
2017-07-10T17:36:09.253Z,16.00
2017-07-10T17:38:37.393Z,16.00
2017-07-10T17:41:06.141Z,16.00
2017-07-10T17:43:34.298Z,16.20
2017-07-10T17:46:02.439Z,16.10
2017-07-10T17:48:30.567Z,16.00
2017-07-10T17:50:58.684Z,16.00
2017-07-10T17:53:26.841Z,16.00
2017-07-10T17:55:55.513Z,15.90
2017-07-10T17:58:23.645Z,15.80
2017-07-10T18:00:52.752Z,15.80
2017-07-10T18:03:20.874Z,15.80
2017-07-10T18:05:49.014Z,15.90
2017-07-10T18:08:17.188Z,15.90
2017-07-10T18:10:45.332Z,15.90
2017-07-10T18:13:14.256Z,15.90
2017-07-10T18:15:42.455Z,15.90
2017-07-10T18:18:10.590Z,16.00
2017-07-10T18:20:38.891Z,16.00
2017-07-10T18:23:07.040Z,15.80
2017-07-10T18:25:35.943Z,15.70
2017-07-10T18:28:04.061Z,15.60
2017-07-10T18:30:33.771Z,15.60
2017-07-10T18:33:01.938Z,15.50
2017-07-10T18:35:30.905Z,15.40
2017-07-10T18:38:00.277Z,15.40
2017-07-10T18:40:29.207Z,15.30
2017-07-10T18:42:57.340Z,15.30
2017-07-10T18:45:25.954Z,15.20
2017-07-10T18:47:54.739Z,15.10
2017-07-10T18:50:22.994Z,15.10
2017-07-10T18:52:51.917Z,15.20
2017-07-10T18:55:20.100Z,15.20
2017-07-10T18:57:48.228Z,15.10
2017-07-10T19:00:16.381Z,15.10
2017-07-10T19:02:46.289Z,15.00
2017-07-10T19:05:16.378Z,15.00
2017-07-10T19:07:45.235Z,14.90
2017-07-10T19:10:14.182Z,15.00
2017-07-10T19:12:44.886Z,15.00
2017-07-10T19:15:13.078Z,15.00
2017-07-10T19:17:41.246Z,15.10
2017-07-10T19:20:09.377Z,15.10
2017-07-10T19:22:39.693Z,15.30
2017-07-10T19:25:08.489Z,15.20
2017-07-10T19:27:36.638Z,15.60
2017-07-10T19:30:04.853Z,15.60
2017-07-10T19:32:32.981Z,15.70
2017-07-10T19:35:01.903Z,15.90
2017-07-10T19:37:30.071Z,15.90
2017-07-10T19:39:58.226Z,15.90
2017-07-10T19:42:27.833Z,15.80
2017-07-10T19:44:56.018Z,15.90
2017-07-10T19:47:24.586Z,15.80
2017-07-10T19:49:52.909Z,15.50
2017-07-10T19:52:21.119Z,15.30
2017-07-10T19:54:49.245Z,15.30
2017-07-10T19:57:18.508Z,15.30
2017-07-10T19:59:46.692Z,15.20
2017-07-10T20:02:15.872Z,15.20
2017-07-10T20:04:44.702Z,15.20
2017-07-10T20:07:13.309Z,15.10
2017-07-10T20:09:41.454Z,15.10
2017-07-10T20:12:10.172Z,15.00
2017-07-10T20:14:38.450Z,15.00
2017-07-10T20:17:06.597Z,15.00
2017-07-10T20:19:34.714Z,14.90
2017-07-10T20:22:03.358Z,14.90
2017-07-10T20:24:31.908Z,14.90
2017-07-10T20:27:00.139Z,14.90
2017-07-10T20:29:28.415Z,14.90
2017-07-10T20:31:57.384Z,14.90
2017-07-10T20:34:25.535Z,14.90
2017-07-10T20:36:53.702Z,14.90
2017-07-10T20:39:21.845Z,14.90
2017-07-10T20:41:50.323Z,15.00
2017-07-10T20:44:19.286Z,14.90
2017-07-10T20:46:47.961Z,14.80
2017-07-10T20:49:16.484Z,14.90
2017-07-10T20:51:44.691Z,15.00
2017-07-10T20:54:12.802Z,15.00
2017-07-10T20:56:41.686Z,14.90
2017-07-10T20:59:09.838Z,15.00
2017-07-10T21:01:37.957Z,15.00
2017-07-10T21:04:06.090Z,15.10
2017-07-10T21:06:34.248Z,15.10
2017-07-10T21:09:02.377Z,15.10
2017-07-10T21:11:32.057Z,15.00
2017-07-10T21:14:01.000Z,15.00
2017-07-10T21:16:30.104Z,14.90
2017-07-10T21:18:58.239Z,15.00
2017-07-10T21:21:27.274Z,15.00
2017-07-10T21:23:55.424Z,14.90
2017-07-10T21:26:23.591Z,15.10
2017-07-10T21:28:51.788Z,15.10
2017-07-10T21:31:20.561Z,15.00
2017-07-10T21:33:48.702Z,15.00
2017-07-10T21:36:17.311Z,14.90
2017-07-10T21:38:47.136Z,14.90
2017-07-10T21:41:15.292Z,14.90
2017-07-10T21:43:44.371Z,15.00
2017-07-10T21:46:12.515Z,15.00
2017-07-10T21:48:40.702Z,15.10
2017-07-10T21:51:09.576Z,15.10
2017-07-10T21:53:38.481Z,15.10
2017-07-10T21:56:06.614Z,15.00
2017-07-10T21:58:34.737Z,15.10
2017-07-10T22:01:02.869Z,15.10
2017-07-10T22:03:31.035Z,15.10
2017-07-10T22:05:59.201Z,15.10
2017-07-10T22:08:27.629Z,15.10
2017-07-10T22:10:55.794Z,15.10
2017-07-10T22:13:23.925Z,15.20
2017-07-10T22:15:52.136Z,15.10
2017-07-10T22:18:20.315Z,15.10
2017-07-10T22:20:48.445Z,15.10
2017-07-10T22:23:16.581Z,15.10
2017-07-10T22:25:44.727Z,15.20
2017-07-10T22:28:13.621Z,15.20
2017-07-10T22:30:41.780Z,15.20
2017-07-10T22:33:09.968Z,15.20
2017-07-10T22:35:38.116Z,15.20
2017-07-10T22:38:07.028Z,15.20
2017-07-10T22:40:35.211Z,15.20
2017-07-10T22:43:03.340Z,15.30
2017-07-10T22:45:31.491Z,15.20
2017-07-10T22:47:59.645Z,15.20
2017-07-10T22:50:27.813Z,15.20
2017-07-10T22:52:55.941Z,15.20
2017-07-10T22:55:24.092Z,15.20
2017-07-10T22:57:52.242Z,15.20
2017-07-10T23:00:20.363Z,15.30
2017-07-10T23:02:48.538Z,15.30
2017-07-10T23:05:17.419Z,15.30
2017-07-10T23:07:45.571Z,15.20
2017-07-10T23:10:13.734Z,15.30
2017-07-10T23:12:41.851Z,15.30
2017-07-10T23:15:10.739Z,15.30
2017-07-10T23:17:38.884Z,15.30
2017-07-10T23:22:51.012Z,15.30
2017-07-10T23:25:19.148Z,15.30
2017-07-10T23:27:47.330Z,15.20
2017-07-10T23:30:15.567Z,15.10
2017-07-10T23:32:43.729Z,15.10
2017-07-10T23:35:11.909Z,15.00
2017-07-10T23:37:40.095Z,15.00
2017-07-10T23:40:08.232Z,15.00
2017-07-10T23:42:36.374Z,15.00
2017-07-10T23:45:04.526Z,15.00
2017-07-10T23:47:32.659Z,15.00
2017-07-10T23:50:00.790Z,14.90
2017-07-10T23:52:28.929Z,14.90
2017-07-10T23:54:57.777Z,15.00
2017-07-10T23:57:26.672Z,15.00
2017-07-10T23:59:54.843Z,15.00
